<?xml version="1.0" encoding="UTF-8"?>
<gpx creator="Wikiloc - https://www.wikiloc.com" version="1.1" xmlns="http://www.topografix.com/GPX/1/1" xmlns:xsi="http://www.w3.org/2001/XMLSchema-instance" xsi:schemaLocation="http://www.topografix.com/GPX/1/1 http://www.topografix.com/GPX/1/1/gpx.xsd">
  <metadata>
    <name>Wikiloc - Gete - León</name>
    <link href="https://www.wikiloc.com/nordic-walking-trails/gete-leon-93534736">
      <text>Gete - León on Wikiloc</text>
    </link>
    <time>2022-01-23T17:58:49Z</time>
  </metadata>
  <trk>
    <name>Gete - León</name>
    <cmt>Gete - León</cmt>
    <desc>Gete - León</desc>
    <trkseg>
      <trkpt lat="42.931930" lon="-5.548007">
        <ele>1143.135</ele>
        <time>2022-01-23T10:16:15Z</time>
      </trkpt>
      <trkpt lat="42.931678" lon="-5.548237">
        <ele>1143.086</ele>
        <time>2022-01-23T10:17:03Z</time>
      </trkpt>
      <trkpt lat="42.931927" lon="-5.549643">
        <ele>1133.614</ele>
        <time>2022-01-23T10:18:32Z</time>
      </trkpt>
      <trkpt lat="42.931762" lon="-5.551295">
        <ele>1132.508</ele>
        <time>2022-01-23T10:19:58Z</time>
      </trkpt>
      <trkpt lat="42.931562" lon="-5.551924">
        <ele>1131.032</ele>
        <time>2022-01-23T10:20:35Z</time>
      </trkpt>
      <trkpt lat="42.931740" lon="-5.553159">
        <ele>1131.996</ele>
        <time>2022-01-23T10:21:43Z</time>
      </trkpt>
      <trkpt lat="42.931429" lon="-5.553806">
        <ele>1135.468</ele>
        <time>2022-01-23T10:22:31Z</time>
      </trkpt>
      <trkpt lat="42.930977" lon="-5.554183">
        <ele>1132.666</ele>
        <time>2022-01-23T10:23:27Z</time>
      </trkpt>
      <trkpt lat="42.930589" lon="-5.556381">
        <ele>1134.637</ele>
        <time>2022-01-23T10:25:54Z</time>
      </trkpt>
      <trkpt lat="42.930175" lon="-5.557307">
        <ele>1135.040</ele>
        <time>2022-01-23T10:27:05Z</time>
      </trkpt>
      <trkpt lat="42.930455" lon="-5.558484">
        <ele>1140.226</ele>
        <time>2022-01-23T10:28:34Z</time>
      </trkpt>
      <trkpt lat="42.930420" lon="-5.559350">
        <ele>1145.659</ele>
        <time>2022-01-23T10:29:42Z</time>
      </trkpt>
      <trkpt lat="42.930996" lon="-5.561875">
        <ele>1150.088</ele>
        <time>2022-01-23T10:38:29Z</time>
      </trkpt>
      <trkpt lat="42.930852" lon="-5.564025">
        <ele>1161.424</ele>
        <time>2022-01-23T10:41:35Z</time>
      </trkpt>
      <trkpt lat="42.930966" lon="-5.566448">
        <ele>1172.126</ele>
        <time>2022-01-23T10:44:02Z</time>
      </trkpt>
      <trkpt lat="42.931511" lon="-5.570461">
        <ele>1187.808</ele>
        <time>2022-01-23T10:48:13Z</time>
      </trkpt>
      <trkpt lat="42.931437" lon="-5.571282">
        <ele>1193.117</ele>
        <time>2022-01-23T10:49:05Z</time>
      </trkpt>
      <trkpt lat="42.931692" lon="-5.572222">
        <ele>1197.831</ele>
        <time>2022-01-23T10:50:08Z</time>
      </trkpt>
      <trkpt lat="42.931630" lon="-5.572554">
        <ele>1201.933</ele>
        <time>2022-01-23T10:50:31Z</time>
      </trkpt>
      <trkpt lat="42.931247" lon="-5.572846">
        <ele>1206.991</ele>
        <time>2022-01-23T10:51:15Z</time>
      </trkpt>
      <trkpt lat="42.931049" lon="-5.573519">
        <ele>1210.732</ele>
        <time>2022-01-23T10:51:59Z</time>
      </trkpt>
      <trkpt lat="42.930926" lon="-5.575216">
        <ele>1223.055</ele>
        <time>2022-01-23T10:57:37Z</time>
      </trkpt>
      <trkpt lat="42.930537" lon="-5.577228">
        <ele>1225.731</ele>
        <time>2022-01-23T11:00:04Z</time>
      </trkpt>
      <trkpt lat="42.930902" lon="-5.579765">
        <ele>1238.934</ele>
        <time>2022-01-23T11:03:22Z</time>
      </trkpt>
      <trkpt lat="42.930667" lon="-5.581906">
        <ele>1256.564</ele>
        <time>2022-01-23T11:06:38Z</time>
      </trkpt>
      <trkpt lat="42.931193" lon="-5.582942">
        <ele>1266.306</ele>
        <time>2022-01-23T11:08:42Z</time>
      </trkpt>
      <trkpt lat="42.930755" lon="-5.583250">
        <ele>1273.916</ele>
        <time>2022-01-23T11:10:21Z</time>
      </trkpt>
      <trkpt lat="42.930710" lon="-5.583493">
        <ele>1277.308</ele>
        <time>2022-01-23T11:10:59Z</time>
      </trkpt>
      <trkpt lat="42.931356" lon="-5.585818">
        <ele>1319.555</ele>
        <time>2022-01-23T11:19:35Z</time>
      </trkpt>
      <trkpt lat="42.931297" lon="-5.586600">
        <ele>1330.149</ele>
        <time>2022-01-23T11:21:02Z</time>
      </trkpt>
      <trkpt lat="42.930788" lon="-5.587260">
        <ele>1335.141</ele>
        <time>2022-01-23T11:22:31Z</time>
      </trkpt>
      <trkpt lat="42.930283" lon="-5.587408">
        <ele>1340.929</ele>
        <time>2022-01-23T11:23:56Z</time>
      </trkpt>
      <trkpt lat="42.930145" lon="-5.588574">
        <ele>1363.790</ele>
        <time>2022-01-23T11:32:52Z</time>
      </trkpt>
      <trkpt lat="42.930252" lon="-5.589260">
        <ele>1376.633</ele>
        <time>2022-01-23T11:34:50Z</time>
      </trkpt>
      <trkpt lat="42.930589" lon="-5.589752">
        <ele>1389.359</ele>
        <time>2022-01-23T11:59:07Z</time>
      </trkpt>
      <trkpt lat="42.931296" lon="-5.590266">
        <ele>1412.352</ele>
        <time>2022-01-23T12:04:03Z</time>
      </trkpt>
      <trkpt lat="42.931528" lon="-5.590249">
        <ele>1419.359</ele>
        <time>2022-01-23T12:05:09Z</time>
      </trkpt>
      <trkpt lat="42.931747" lon="-5.590534">
        <ele>1426.703</ele>
        <time>2022-01-23T12:06:23Z</time>
      </trkpt>
      <trkpt lat="42.931763" lon="-5.590445">
        <ele>1428.323</ele>
        <time>2022-01-23T12:07:47Z</time>
      </trkpt>
      <trkpt lat="42.932073" lon="-5.590594">
        <ele>1429.508</ele>
        <time>2022-01-23T12:09:00Z</time>
      </trkpt>
      <trkpt lat="42.932864" lon="-5.589048">
        <ele>1451.184</ele>
        <time>2022-01-23T12:17:38Z</time>
      </trkpt>
      <trkpt lat="42.933129" lon="-5.588864">
        <ele>1452.118</ele>
        <time>2022-01-23T12:18:45Z</time>
      </trkpt>
      <trkpt lat="42.934189" lon="-5.587390">
        <ele>1472.810</ele>
        <time>2022-01-23T12:26:17Z</time>
      </trkpt>
      <trkpt lat="42.935123" lon="-5.587648">
        <ele>1475.778</ele>
        <time>2022-01-23T12:31:25Z</time>
      </trkpt>
      <trkpt lat="42.935239" lon="-5.587537">
        <ele>1475.859</ele>
        <time>2022-01-23T12:33:24Z</time>
      </trkpt>
      <trkpt lat="42.935340" lon="-5.586666">
        <ele>1475.922</ele>
        <time>2022-01-23T12:37:23Z</time>
      </trkpt>
      <trkpt lat="42.935151" lon="-5.586056">
        <ele>1484.538</ele>
        <time>2022-01-23T12:40:25Z</time>
      </trkpt>
      <trkpt lat="42.935502" lon="-5.585496">
        <ele>1491.981</ele>
        <time>2022-01-23T12:53:09Z</time>
      </trkpt>
      <trkpt lat="42.935260" lon="-5.585130">
        <ele>1493.941</ele>
        <time>2022-01-23T12:57:26Z</time>
      </trkpt>
      <trkpt lat="42.935191" lon="-5.584697">
        <ele>1491.281</ele>
        <time>2022-01-23T12:58:53Z</time>
      </trkpt>
      <trkpt lat="42.935689" lon="-5.582797">
        <ele>1489.009</ele>
        <time>2022-01-23T13:11:56Z</time>
      </trkpt>
      <trkpt lat="42.935530" lon="-5.581032">
        <ele>1492.608</ele>
        <time>2022-01-23T13:16:37Z</time>
      </trkpt>
      <trkpt lat="42.935795" lon="-5.579995">
        <ele>1493.963</ele>
        <time>2022-01-23T13:18:44Z</time>
      </trkpt>
      <trkpt lat="42.935582" lon="-5.579802">
        <ele>1493.367</ele>
        <time>2022-01-23T13:20:16Z</time>
      </trkpt>
      <trkpt lat="42.935930" lon="-5.579792">
        <ele>1490.189</ele>
        <time>2022-01-23T13:25:22Z</time>
      </trkpt>
      <trkpt lat="42.936401" lon="-5.578968">
        <ele>1490.657</ele>
        <time>2022-01-23T13:27:39Z</time>
      </trkpt>
      <trkpt lat="42.936528" lon="-5.577404">
        <ele>1485.678</ele>
        <time>2022-01-23T13:30:06Z</time>
      </trkpt>
      <trkpt lat="42.937016" lon="-5.576304">
        <ele>1483.191</ele>
        <time>2022-01-23T13:31:52Z</time>
      </trkpt>
      <trkpt lat="42.937283" lon="-5.576125">
        <ele>1483.457</ele>
        <time>2022-01-23T13:33:11Z</time>
      </trkpt>
      <trkpt lat="42.937602" lon="-5.576124">
        <ele>1484.360</ele>
        <time>2022-01-23T13:33:54Z</time>
      </trkpt>
      <trkpt lat="42.937594" lon="-5.575977">
        <ele>1485.114</ele>
        <time>2022-01-23T13:35:19Z</time>
      </trkpt>
      <trkpt lat="42.937946" lon="-5.576003">
        <ele>1484.754</ele>
        <time>2022-01-23T13:36:09Z</time>
      </trkpt>
      <trkpt lat="42.937899" lon="-5.575490">
        <ele>1481.609</ele>
        <time>2022-01-23T13:42:43Z</time>
      </trkpt>
      <trkpt lat="42.937533" lon="-5.574813">
        <ele>1483.708</ele>
        <time>2022-01-23T13:44:06Z</time>
      </trkpt>
      <trkpt lat="42.937613" lon="-5.573564">
        <ele>1483.060</ele>
        <time>2022-01-23T13:45:44Z</time>
      </trkpt>
      <trkpt lat="42.937492" lon="-5.573314">
        <ele>1483.784</ele>
        <time>2022-01-23T13:46:19Z</time>
      </trkpt>
      <trkpt lat="42.937693" lon="-5.572304">
        <ele>1489.836</ele>
        <time>2022-01-23T13:49:17Z</time>
      </trkpt>
      <trkpt lat="42.937649" lon="-5.571353">
        <ele>1481.794</ele>
        <time>2022-01-23T13:50:38Z</time>
      </trkpt>
      <trkpt lat="42.937245" lon="-5.569933">
        <ele>1479.325</ele>
        <time>2022-01-23T13:53:02Z</time>
      </trkpt>
      <trkpt lat="42.937522" lon="-5.568526">
        <ele>1480.838</ele>
        <time>2022-01-23T13:55:19Z</time>
      </trkpt>
      <trkpt lat="42.937498" lon="-5.567729">
        <ele>1480.164</ele>
        <time>2022-01-23T13:56:15Z</time>
      </trkpt>
      <trkpt lat="42.937300" lon="-5.566934">
        <ele>1479.997</ele>
        <time>2022-01-23T13:57:26Z</time>
      </trkpt>
      <trkpt lat="42.937007" lon="-5.566590">
        <ele>1477.655</ele>
        <time>2022-01-23T13:58:41Z</time>
      </trkpt>
      <trkpt lat="42.936667" lon="-5.566470">
        <ele>1479.107</ele>
        <time>2022-01-23T13:59:24Z</time>
      </trkpt>
      <trkpt lat="42.936611" lon="-5.566289">
        <ele>1479.217</ele>
        <time>2022-01-23T13:59:40Z</time>
      </trkpt>
      <trkpt lat="42.936396" lon="-5.566350">
        <ele>1475.608</ele>
        <time>2022-01-23T14:06:00Z</time>
      </trkpt>
      <trkpt lat="42.936690" lon="-5.565578">
        <ele>1480.914</ele>
        <time>2022-01-23T15:15:00Z</time>
      </trkpt>
      <trkpt lat="42.936695" lon="-5.564500">
        <ele>1463.528</ele>
        <time>2022-01-23T15:16:31Z</time>
      </trkpt>
      <trkpt lat="42.936940" lon="-5.564215">
        <ele>1461.910</ele>
        <time>2022-01-23T15:17:14Z</time>
      </trkpt>
      <trkpt lat="42.937000" lon="-5.563662">
        <ele>1453.718</ele>
        <time>2022-01-23T15:18:33Z</time>
      </trkpt>
      <trkpt lat="42.936558" lon="-5.563347">
        <ele>1462.489</ele>
        <time>2022-01-23T15:21:42Z</time>
      </trkpt>
      <trkpt lat="42.936389" lon="-5.561734">
        <ele>1474.762</ele>
        <time>2022-01-23T15:27:50Z</time>
      </trkpt>
      <trkpt lat="42.936188" lon="-5.561545">
        <ele>1484.778</ele>
        <time>2022-01-23T15:30:39Z</time>
      </trkpt>
      <trkpt lat="42.936280" lon="-5.561355">
        <ele>1492.671</ele>
        <time>2022-01-23T15:34:15Z</time>
      </trkpt>
      <trkpt lat="42.936161" lon="-5.560382">
        <ele>1480.832</ele>
        <time>2022-01-23T15:36:14Z</time>
      </trkpt>
      <trkpt lat="42.936022" lon="-5.560242">
        <ele>1478.292</ele>
        <time>2022-01-23T15:37:03Z</time>
      </trkpt>
      <trkpt lat="42.936039" lon="-5.559740">
        <ele>1463.711</ele>
        <time>2022-01-23T15:38:27Z</time>
      </trkpt>
      <trkpt lat="42.935670" lon="-5.559263">
        <ele>1452.208</ele>
        <time>2022-01-23T15:40:00Z</time>
      </trkpt>
      <trkpt lat="42.935157" lon="-5.557912">
        <ele>1420.252</ele>
        <time>2022-01-23T15:43:04Z</time>
      </trkpt>
      <trkpt lat="42.934837" lon="-5.557702">
        <ele>1407.316</ele>
        <time>2022-01-23T15:43:53Z</time>
      </trkpt>
      <trkpt lat="42.935545" lon="-5.554944">
        <ele>1361.998</ele>
        <time>2022-01-23T15:56:16Z</time>
      </trkpt>
      <trkpt lat="42.935354" lon="-5.553861">
        <ele>1347.576</ele>
        <time>2022-01-23T15:58:00Z</time>
      </trkpt>
      <trkpt lat="42.935152" lon="-5.553452">
        <ele>1339.087</ele>
        <time>2022-01-23T15:59:13Z</time>
      </trkpt>
      <trkpt lat="42.935424" lon="-5.552644">
        <ele>1322.090</ele>
        <time>2022-01-23T16:01:39Z</time>
      </trkpt>
      <trkpt lat="42.935236" lon="-5.550077">
        <ele>1286.816</ele>
        <time>2022-01-23T16:18:00Z</time>
      </trkpt>
      <trkpt lat="42.934254" lon="-5.549714">
        <ele>1253.129</ele>
        <time>2022-01-23T16:22:17Z</time>
      </trkpt>
      <trkpt lat="42.933707" lon="-5.551043">
        <ele>1243.136</ele>
        <time>2022-01-23T16:24:32Z</time>
      </trkpt>
      <trkpt lat="42.933097" lon="-5.551597">
        <ele>1231.417</ele>
        <time>2022-01-23T16:26:21Z</time>
      </trkpt>
      <trkpt lat="42.932707" lon="-5.551300">
        <ele>1218.418</ele>
        <time>2022-01-23T16:27:24Z</time>
      </trkpt>
      <trkpt lat="42.932762" lon="-5.550450">
        <ele>1211.008</ele>
        <time>2022-01-23T16:28:53Z</time>
      </trkpt>
      <trkpt lat="42.932645" lon="-5.550155">
        <ele>1205.622</ele>
        <time>2022-01-23T16:29:22Z</time>
      </trkpt>
      <trkpt lat="42.932730" lon="-5.550199">
        <ele>1203.866</ele>
        <time>2022-01-23T16:30:02Z</time>
      </trkpt>
      <trkpt lat="42.932550" lon="-5.549926">
        <ele>1202.678</ele>
        <time>2022-01-23T16:31:05Z</time>
      </trkpt>
      <trkpt lat="42.932426" lon="-5.549993">
        <ele>1202.976</ele>
        <time>2022-01-23T16:31:49Z</time>
      </trkpt>
      <trkpt lat="42.931932" lon="-5.548029">
        <ele>1183.587</ele>
        <time>2022-01-23T16:36:15Z</time>
      </trkpt>
      <trkpt lat="42.931863" lon="-5.547965">
        <ele>1183.150</ele>
        <time>2022-01-23T16:37:07Z</time>
      </trkpt>
      <trkpt lat="42.931868" lon="-5.548175">
        <ele>1182.636</ele>
        <time>2022-01-23T16:48:51Z</time>
      </trkpt>
      <trkpt lat="42.931692" lon="-5.548274">
        <ele>1182.119</ele>
        <time>2022-01-23T16:49:11Z</time>
      </trkpt>
      <trkpt lat="42.931846" lon="-5.548700">
        <ele>1175.798</ele>
        <time>2022-01-23T16:49:28Z</time>
      </trkpt>
      <trkpt lat="42.931463" lon="-5.548262">
        <ele>1170.715</ele>
        <time>2022-01-23T16:49:52Z</time>
      </trkpt>
      <trkpt lat="42.931507" lon="-5.547640">
        <ele>1171.126</ele>
        <time>2022-01-23T16:50:03Z</time>
      </trkpt>
      <trkpt lat="42.931993" lon="-5.547215">
        <ele>1169.108</ele>
        <time>2022-01-23T16:50:12Z</time>
      </trkpt>
      <trkpt lat="42.933306" lon="-5.547039">
        <ele>1161.548</ele>
        <time>2022-01-23T16:50:29Z</time>
      </trkpt>
      <trkpt lat="42.934526" lon="-5.546583">
        <ele>1154.972</ele>
        <time>2022-01-23T16:50:46Z</time>
      </trkpt>
      <trkpt lat="42.935412" lon="-5.547045">
        <ele>1153.174</ele>
        <time>2022-01-23T16:50:58Z</time>
      </trkpt>
      <trkpt lat="42.936155" lon="-5.547855">
        <ele>1153.212</ele>
        <time>2022-01-23T16:51:13Z</time>
      </trkpt>
      <trkpt lat="42.937037" lon="-5.548496">
        <ele>1149.113</ele>
        <time>2022-01-23T16:51:31Z</time>
      </trkpt>
      <trkpt lat="42.937162" lon="-5.548067">
        <ele>1147.526</ele>
        <time>2022-01-23T16:51:44Z</time>
      </trkpt>
      <trkpt lat="42.935217" lon="-5.545588">
        <ele>1151.392</ele>
        <time>2022-01-23T16:52:10Z</time>
      </trkpt>
      <trkpt lat="42.931860" lon="-5.543964">
        <ele>1147.895</ele>
        <time>2022-01-23T16:52:37Z</time>
      </trkpt>
      <trkpt lat="42.930570" lon="-5.543088">
        <ele>1147.021</ele>
        <time>2022-01-23T16:52:46Z</time>
      </trkpt>
      <trkpt lat="42.929168" lon="-5.543387">
        <ele>1146.041</ele>
        <time>2022-01-23T16:52:57Z</time>
      </trkpt>
      <trkpt lat="42.927432" lon="-5.543138">
        <ele>1146.605</ele>
        <time>2022-01-23T16:53:08Z</time>
      </trkpt>
      <trkpt lat="42.926454" lon="-5.542460">
        <ele>1143.408</ele>
        <time>2022-01-23T16:53:15Z</time>
      </trkpt>
      <trkpt lat="42.925506" lon="-5.541458">
        <ele>1139.731</ele>
        <time>2022-01-23T16:53:24Z</time>
      </trkpt>
      <trkpt lat="42.924831" lon="-5.539817">
        <ele>1136.275</ele>
        <time>2022-01-23T16:53:35Z</time>
      </trkpt>
      <trkpt lat="42.924220" lon="-5.539374">
        <ele>1134.577</ele>
        <time>2022-01-23T16:53:41Z</time>
      </trkpt>
      <trkpt lat="42.922268" lon="-5.539881">
        <ele>1133.315</ele>
        <time>2022-01-23T16:53:59Z</time>
      </trkpt>
      <trkpt lat="42.920623" lon="-5.539676">
        <ele>1131.276</ele>
        <time>2022-01-23T16:54:15Z</time>
      </trkpt>
      <trkpt lat="42.920124" lon="-5.539301">
        <ele>1129.869</ele>
        <time>2022-01-23T16:54:20Z</time>
      </trkpt>
      <trkpt lat="42.919286" lon="-5.538997">
        <ele>1127.495</ele>
        <time>2022-01-23T16:54:28Z</time>
      </trkpt>
      <trkpt lat="42.918645" lon="-5.539049">
        <ele>1126.378</ele>
        <time>2022-01-23T16:54:34Z</time>
      </trkpt>
      <trkpt lat="42.918084" lon="-5.539586">
        <ele>1125.422</ele>
        <time>2022-01-23T16:54:42Z</time>
      </trkpt>
      <trkpt lat="42.917688" lon="-5.540380">
        <ele>1125.662</ele>
        <time>2022-01-23T16:54:53Z</time>
      </trkpt>
      <trkpt lat="42.917452" lon="-5.541432">
        <ele>1126.408</ele>
        <time>2022-01-23T16:55:04Z</time>
      </trkpt>
      <trkpt lat="42.917157" lon="-5.541843">
        <ele>1123.608</ele>
        <time>2022-01-23T16:55:10Z</time>
      </trkpt>
      <trkpt lat="42.916778" lon="-5.541991">
        <ele>1122.441</ele>
        <time>2022-01-23T16:55:15Z</time>
      </trkpt>
      <trkpt lat="42.915610" lon="-5.541877">
        <ele>1125.665</ele>
        <time>2022-01-23T16:55:26Z</time>
      </trkpt>
      <trkpt lat="42.915010" lon="-5.542309">
        <ele>1126.327</ele>
        <time>2022-01-23T16:55:34Z</time>
      </trkpt>
      <trkpt lat="42.914397" lon="-5.542167">
        <ele>1125.395</ele>
        <time>2022-01-23T16:55:40Z</time>
      </trkpt>
      <trkpt lat="42.912445" lon="-5.540152">
        <ele>1117.356</ele>
        <time>2022-01-23T16:56:04Z</time>
      </trkpt>
      <trkpt lat="42.911930" lon="-5.540330">
        <ele>1118.529</ele>
        <time>2022-01-23T16:56:12Z</time>
      </trkpt>
      <trkpt lat="42.911879" lon="-5.541395">
        <ele>1119.815</ele>
        <time>2022-01-23T16:56:25Z</time>
      </trkpt>
      <trkpt lat="42.911660" lon="-5.541605">
        <ele>1119.128</ele>
        <time>2022-01-23T16:56:30Z</time>
      </trkpt>
      <trkpt lat="42.911477" lon="-5.541484">
        <ele>1117.731</ele>
        <time>2022-01-23T16:56:33Z</time>
      </trkpt>
      <trkpt lat="42.910830" lon="-5.539210">
        <ele>1114.761</ele>
        <time>2022-01-23T16:56:54Z</time>
      </trkpt>
      <trkpt lat="42.910303" lon="-5.538845">
        <ele>1115.907</ele>
        <time>2022-01-23T16:57:00Z</time>
      </trkpt>
      <trkpt lat="42.909399" lon="-5.539135">
        <ele>1112.808</ele>
        <time>2022-01-23T16:57:09Z</time>
      </trkpt>
      <trkpt lat="42.908915" lon="-5.539643">
        <ele>1108.852</ele>
        <time>2022-01-23T16:57:18Z</time>
      </trkpt>
      <trkpt lat="42.908278" lon="-5.539136">
        <ele>1106.696</ele>
        <time>2022-01-23T16:57:29Z</time>
      </trkpt>
      <trkpt lat="42.907596" lon="-5.539167">
        <ele>1106.868</ele>
        <time>2022-01-23T16:57:38Z</time>
      </trkpt>
      <trkpt lat="42.907296" lon="-5.539461">
        <ele>1106.556</ele>
        <time>2022-01-23T16:57:44Z</time>
      </trkpt>
      <trkpt lat="42.906553" lon="-5.539396">
        <ele>1106.337</ele>
        <time>2022-01-23T16:57:53Z</time>
      </trkpt>
      <trkpt lat="42.905724" lon="-5.538847">
        <ele>1103.460</ele>
        <time>2022-01-23T16:58:05Z</time>
      </trkpt>
      <trkpt lat="42.904754" lon="-5.539447">
        <ele>1103.226</ele>
        <time>2022-01-23T16:58:17Z</time>
      </trkpt>
      <trkpt lat="42.904371" lon="-5.539438">
        <ele>1103.289</ele>
        <time>2022-01-23T16:58:22Z</time>
      </trkpt>
      <trkpt lat="42.903944" lon="-5.539001">
        <ele>1101.593</ele>
        <time>2022-01-23T16:58:30Z</time>
      </trkpt>
      <trkpt lat="42.902972" lon="-5.539427">
        <ele>1099.265</ele>
        <time>2022-01-23T16:58:43Z</time>
      </trkpt>
      <trkpt lat="42.902268" lon="-5.538837">
        <ele>1099.321</ele>
        <time>2022-01-23T16:58:55Z</time>
      </trkpt>
      <trkpt lat="42.901065" lon="-5.539868">
        <ele>1098.808</ele>
        <time>2022-01-23T16:59:12Z</time>
      </trkpt>
      <trkpt lat="42.900608" lon="-5.539987">
        <ele>1098.428</ele>
        <time>2022-01-23T16:59:16Z</time>
      </trkpt>
      <trkpt lat="42.899478" lon="-5.539430">
        <ele>1094.072</ele>
        <time>2022-01-23T16:59:26Z</time>
      </trkpt>
      <trkpt lat="42.898215" lon="-5.538358">
        <ele>1092.644</ele>
        <time>2022-01-23T16:59:38Z</time>
      </trkpt>
      <trkpt lat="42.897749" lon="-5.538213">
        <ele>1093.442</ele>
        <time>2022-01-23T16:59:42Z</time>
      </trkpt>
      <trkpt lat="42.897000" lon="-5.538272">
        <ele>1093.293</ele>
        <time>2022-01-23T16:59:48Z</time>
      </trkpt>
      <trkpt lat="42.895247" lon="-5.539515">
        <ele>1092.656</ele>
        <time>2022-01-23T17:00:02Z</time>
      </trkpt>
      <trkpt lat="42.894187" lon="-5.539707">
        <ele>1088.922</ele>
        <time>2022-01-23T17:00:11Z</time>
      </trkpt>
      <trkpt lat="42.893064" lon="-5.538637">
        <ele>1088.535</ele>
        <time>2022-01-23T17:00:23Z</time>
      </trkpt>
      <trkpt lat="42.890715" lon="-5.534784">
        <ele>1085.519</ele>
        <time>2022-01-23T17:00:52Z</time>
      </trkpt>
      <trkpt lat="42.888391" lon="-5.533248">
        <ele>1082.609</ele>
        <time>2022-01-23T17:01:13Z</time>
      </trkpt>
      <trkpt lat="42.887092" lon="-5.532172">
        <ele>1077.919</ele>
        <time>2022-01-23T17:01:26Z</time>
      </trkpt>
      <trkpt lat="42.886364" lon="-5.531896">
        <ele>1075.608</ele>
        <time>2022-01-23T17:01:34Z</time>
      </trkpt>
      <trkpt lat="42.885295" lon="-5.532504">
        <ele>1075.870</ele>
        <time>2022-01-23T17:01:44Z</time>
      </trkpt>
      <trkpt lat="42.884438" lon="-5.532708">
        <ele>1075.674</ele>
        <time>2022-01-23T17:01:52Z</time>
      </trkpt>
      <trkpt lat="42.882030" lon="-5.531475">
        <ele>1071.396</ele>
        <time>2022-01-23T17:02:14Z</time>
      </trkpt>
      <trkpt lat="42.881563" lon="-5.531107">
        <ele>1070.044</ele>
        <time>2022-01-23T17:02:19Z</time>
      </trkpt>
      <trkpt lat="42.881278" lon="-5.530661">
        <ele>1068.985</ele>
        <time>2022-01-23T17:02:23Z</time>
      </trkpt>
      <trkpt lat="42.881244" lon="-5.530219">
        <ele>1068.768</ele>
        <time>2022-01-23T17:02:26Z</time>
      </trkpt>
      <trkpt lat="42.881721" lon="-5.528735">
        <ele>1072.324</ele>
        <time>2022-01-23T17:02:38Z</time>
      </trkpt>
      <trkpt lat="42.881780" lon="-5.527112">
        <ele>1078.137</ele>
        <time>2022-01-23T17:02:48Z</time>
      </trkpt>
      <trkpt lat="42.881485" lon="-5.526453">
        <ele>1079.825</ele>
        <time>2022-01-23T17:02:53Z</time>
      </trkpt>
      <trkpt lat="42.880634" lon="-5.525982">
        <ele>1080.926</ele>
        <time>2022-01-23T17:03:00Z</time>
      </trkpt>
      <trkpt lat="42.879445" lon="-5.525551">
        <ele>1079.408</ele>
        <time>2022-01-23T17:03:08Z</time>
      </trkpt>
      <trkpt lat="42.874729" lon="-5.525251">
        <ele>1059.708</ele>
        <time>2022-01-23T17:03:41Z</time>
      </trkpt>
      <trkpt lat="42.872352" lon="-5.523433">
        <ele>1065.241</ele>
        <time>2022-01-23T17:03:59Z</time>
      </trkpt>
      <trkpt lat="42.868685" lon="-5.522072">
        <ele>1059.755</ele>
        <time>2022-01-23T17:04:28Z</time>
      </trkpt>
      <trkpt lat="42.867572" lon="-5.521962">
        <ele>1058.857</ele>
        <time>2022-01-23T17:04:37Z</time>
      </trkpt>
      <trkpt lat="42.866785" lon="-5.521484">
        <ele>1056.575</ele>
        <time>2022-01-23T17:04:44Z</time>
      </trkpt>
      <trkpt lat="42.864938" lon="-5.520739">
        <ele>1050.666</ele>
        <time>2022-01-23T17:05:00Z</time>
      </trkpt>
      <trkpt lat="42.863890" lon="-5.519338">
        <ele>1047.389</ele>
        <time>2022-01-23T17:05:13Z</time>
      </trkpt>
      <trkpt lat="42.862595" lon="-5.518818">
        <ele>1046.545</ele>
        <time>2022-01-23T17:05:25Z</time>
      </trkpt>
      <trkpt lat="42.859468" lon="-5.519149">
        <ele>1045.338</ele>
        <time>2022-01-23T17:05:49Z</time>
      </trkpt>
      <trkpt lat="42.857661" lon="-5.519074">
        <ele>1042.253</ele>
        <time>2022-01-23T17:06:02Z</time>
      </trkpt>
      <trkpt lat="42.856399" lon="-5.519283">
        <ele>1042.804</ele>
        <time>2022-01-23T17:06:12Z</time>
      </trkpt>
      <trkpt lat="42.855921" lon="-5.519709">
        <ele>1040.714</ele>
        <time>2022-01-23T17:06:17Z</time>
      </trkpt>
      <trkpt lat="42.855253" lon="-5.521120">
        <ele>1038.808</ele>
        <time>2022-01-23T17:06:27Z</time>
      </trkpt>
      <trkpt lat="42.854000" lon="-5.522085">
        <ele>1040.214</ele>
        <time>2022-01-23T17:06:37Z</time>
      </trkpt>
      <trkpt lat="42.853097" lon="-5.523019">
        <ele>1039.798</ele>
        <time>2022-01-23T17:06:45Z</time>
      </trkpt>
      <trkpt lat="42.851955" lon="-5.523813">
        <ele>1038.810</ele>
        <time>2022-01-23T17:06:55Z</time>
      </trkpt>
      <trkpt lat="42.847655" lon="-5.523025">
        <ele>1037.018</ele>
        <time>2022-01-23T17:07:26Z</time>
      </trkpt>
      <trkpt lat="42.843510" lon="-5.521429">
        <ele>1031.739</ele>
        <time>2022-01-23T17:07:58Z</time>
      </trkpt>
      <trkpt lat="42.841792" lon="-5.520507">
        <ele>1029.022</ele>
        <time>2022-01-23T17:08:15Z</time>
      </trkpt>
      <trkpt lat="42.840763" lon="-5.519492">
        <ele>1024.578</ele>
        <time>2022-01-23T17:08:35Z</time>
      </trkpt>
      <trkpt lat="42.839991" lon="-5.518471">
        <ele>1025.631</ele>
        <time>2022-01-23T17:08:46Z</time>
      </trkpt>
      <trkpt lat="42.839399" lon="-5.515398">
        <ele>1025.026</ele>
        <time>2022-01-23T17:09:06Z</time>
      </trkpt>
      <trkpt lat="42.837970" lon="-5.511850">
        <ele>1020.947</ele>
        <time>2022-01-23T17:09:35Z</time>
      </trkpt>
      <trkpt lat="42.837506" lon="-5.510858">
        <ele>1022.611</ele>
        <time>2022-01-23T17:09:43Z</time>
      </trkpt>
      <trkpt lat="42.836263" lon="-5.509353">
        <ele>1024.208</ele>
        <time>2022-01-23T17:09:57Z</time>
      </trkpt>
      <trkpt lat="42.835667" lon="-5.509262">
        <ele>1023.711</ele>
        <time>2022-01-23T17:10:02Z</time>
      </trkpt>
      <trkpt lat="42.831437" lon="-5.509384">
        <ele>1025.615</ele>
        <time>2022-01-23T17:10:29Z</time>
      </trkpt>
      <trkpt lat="42.827545" lon="-5.508855">
        <ele>1019.787</ele>
        <time>2022-01-23T17:10:49Z</time>
      </trkpt>
      <trkpt lat="42.825950" lon="-5.508143">
        <ele>1019.535</ele>
        <time>2022-01-23T17:10:58Z</time>
      </trkpt>
      <trkpt lat="42.823919" lon="-5.507597">
        <ele>1017.086</ele>
        <time>2022-01-23T17:11:10Z</time>
      </trkpt>
      <trkpt lat="42.818616" lon="-5.506673">
        <ele>1013.239</ele>
        <time>2022-01-23T17:11:38Z</time>
      </trkpt>
      <trkpt lat="42.816744" lon="-5.505839">
        <ele>1010.985</ele>
        <time>2022-01-23T17:11:48Z</time>
      </trkpt>
      <trkpt lat="42.815414" lon="-5.504907">
        <ele>1007.348</ele>
        <time>2022-01-23T17:11:57Z</time>
      </trkpt>
      <trkpt lat="42.814723" lon="-5.504765">
        <ele>1005.762</ele>
        <time>2022-01-23T17:12:02Z</time>
      </trkpt>
      <trkpt lat="42.813940" lon="-5.505081">
        <ele>1002.983</ele>
        <time>2022-01-23T17:12:08Z</time>
      </trkpt>
      <trkpt lat="42.809475" lon="-5.508795">
        <ele>1013.211</ele>
        <time>2022-01-23T17:12:38Z</time>
      </trkpt>
      <trkpt lat="42.808366" lon="-5.509340">
        <ele>1016.308</ele>
        <time>2022-01-23T17:12:44Z</time>
      </trkpt>
      <trkpt lat="42.807295" lon="-5.509607">
        <ele>1017.825</ele>
        <time>2022-01-23T17:12:49Z</time>
      </trkpt>
      <trkpt lat="42.806033" lon="-5.509606">
        <ele>1018.189</ele>
        <time>2022-01-23T17:12:55Z</time>
      </trkpt>
      <trkpt lat="42.805157" lon="-5.509327">
        <ele>1016.481</ele>
        <time>2022-01-23T17:13:00Z</time>
      </trkpt>
      <trkpt lat="42.804625" lon="-5.508756">
        <ele>1014.099</ele>
        <time>2022-01-23T17:13:04Z</time>
      </trkpt>
      <trkpt lat="42.803845" lon="-5.507252">
        <ele>1009.780</ele>
        <time>2022-01-23T17:13:12Z</time>
      </trkpt>
      <trkpt lat="42.803434" lon="-5.506830">
        <ele>1007.453</ele>
        <time>2022-01-23T17:13:15Z</time>
      </trkpt>
      <trkpt lat="42.802921" lon="-5.506610">
        <ele>1004.939</ele>
        <time>2022-01-23T17:13:18Z</time>
      </trkpt>
      <trkpt lat="42.800160" lon="-5.506668">
        <ele>1002.072</ele>
        <time>2022-01-23T17:13:32Z</time>
      </trkpt>
      <trkpt lat="42.798665" lon="-5.506299">
        <ele>1000.613</ele>
        <time>2022-01-23T17:13:40Z</time>
      </trkpt>
      <trkpt lat="42.796481" lon="-5.506445">
        <ele>996.643</ele>
        <time>2022-01-23T17:13:52Z</time>
      </trkpt>
      <trkpt lat="42.794836" lon="-5.506317">
        <ele>995.407</ele>
        <time>2022-01-23T17:14:01Z</time>
      </trkpt>
      <trkpt lat="42.791515" lon="-5.506468">
        <ele>989.508</ele>
        <time>2022-01-23T17:14:21Z</time>
      </trkpt>
      <trkpt lat="42.788531" lon="-5.506006">
        <ele>984.250</ele>
        <time>2022-01-23T17:14:49Z</time>
      </trkpt>
      <trkpt lat="42.779690" lon="-5.508122">
        <ele>984.424</ele>
        <time>2022-01-23T17:15:48Z</time>
      </trkpt>
      <trkpt lat="42.777612" lon="-5.509067">
        <ele>981.076</ele>
        <time>2022-01-23T17:16:01Z</time>
      </trkpt>
      <trkpt lat="42.776089" lon="-5.509513">
        <ele>980.244</ele>
        <time>2022-01-23T17:16:10Z</time>
      </trkpt>
      <trkpt lat="42.773614" lon="-5.509916">
        <ele>970.355</ele>
        <time>2022-01-23T17:16:32Z</time>
      </trkpt>
      <trkpt lat="42.770599" lon="-5.511094">
        <ele>970.338</ele>
        <time>2022-01-23T17:17:06Z</time>
      </trkpt>
      <trkpt lat="42.769198" lon="-5.511294">
        <ele>976.034</ele>
        <time>2022-01-23T17:17:16Z</time>
      </trkpt>
      <trkpt lat="42.767264" lon="-5.510557">
        <ele>979.657</ele>
        <time>2022-01-23T17:17:26Z</time>
      </trkpt>
      <trkpt lat="42.766301" lon="-5.510547">
        <ele>976.219</ele>
        <time>2022-01-23T17:17:31Z</time>
      </trkpt>
      <trkpt lat="42.750793" lon="-5.517223">
        <ele>970.809</ele>
        <time>2022-01-23T17:18:52Z</time>
      </trkpt>
      <trkpt lat="42.748671" lon="-5.518541">
        <ele>974.319</ele>
        <time>2022-01-23T17:19:02Z</time>
      </trkpt>
      <trkpt lat="42.747183" lon="-5.519653">
        <ele>970.508</ele>
        <time>2022-01-23T17:19:10Z</time>
      </trkpt>
      <trkpt lat="42.740793" lon="-5.521303">
        <ele>954.440</ele>
        <time>2022-01-23T17:19:56Z</time>
      </trkpt>
      <trkpt lat="42.738212" lon="-5.521739">
        <ele>952.694</ele>
        <time>2022-01-23T17:20:20Z</time>
      </trkpt>
      <trkpt lat="42.734456" lon="-5.522891">
        <ele>946.436</ele>
        <time>2022-01-23T17:20:56Z</time>
      </trkpt>
      <trkpt lat="42.731821" lon="-5.524271">
        <ele>950.714</ele>
        <time>2022-01-23T17:21:22Z</time>
      </trkpt>
      <trkpt lat="42.722401" lon="-5.526927">
        <ele>944.075</ele>
        <time>2022-01-23T17:22:29Z</time>
      </trkpt>
      <trkpt lat="42.708677" lon="-5.531776">
        <ele>935.048</ele>
        <time>2022-01-23T17:23:47Z</time>
      </trkpt>
      <trkpt lat="42.707932" lon="-5.531964">
        <ele>932.124</ele>
        <time>2022-01-23T17:23:52Z</time>
      </trkpt>
      <trkpt lat="42.706779" lon="-5.531903">
        <ele>923.377</ele>
        <time>2022-01-23T17:24:05Z</time>
      </trkpt>
      <trkpt lat="42.706003" lon="-5.532077">
        <ele>924.511</ele>
        <time>2022-01-23T17:24:13Z</time>
      </trkpt>
      <trkpt lat="42.705285" lon="-5.532436">
        <ele>925.121</ele>
        <time>2022-01-23T17:24:20Z</time>
      </trkpt>
      <trkpt lat="42.704158" lon="-5.533303">
        <ele>923.803</ele>
        <time>2022-01-23T17:24:33Z</time>
      </trkpt>
      <trkpt lat="42.701428" lon="-5.534595">
        <ele>929.308</ele>
        <time>2022-01-23T17:24:51Z</time>
      </trkpt>
      <trkpt lat="42.700020" lon="-5.534678">
        <ele>927.360</ele>
        <time>2022-01-23T17:24:59Z</time>
      </trkpt>
      <trkpt lat="42.696218" lon="-5.535708">
        <ele>923.374</ele>
        <time>2022-01-23T17:25:21Z</time>
      </trkpt>
      <trkpt lat="42.685034" lon="-5.536431">
        <ele>907.096</ele>
        <time>2022-01-23T17:26:39Z</time>
      </trkpt>
      <trkpt lat="42.683993" lon="-5.536224">
        <ele>908.374</ele>
        <time>2022-01-23T17:26:49Z</time>
      </trkpt>
      <trkpt lat="42.682647" lon="-5.536360">
        <ele>906.385</ele>
        <time>2022-01-23T17:27:02Z</time>
      </trkpt>
      <trkpt lat="42.681211" lon="-5.537077">
        <ele>909.378</ele>
        <time>2022-01-23T17:27:15Z</time>
      </trkpt>
      <trkpt lat="42.661997" lon="-5.548338">
        <ele>908.294</ele>
        <time>2022-01-23T17:29:09Z</time>
      </trkpt>
      <trkpt lat="42.658301" lon="-5.548889">
        <ele>905.977</ele>
        <time>2022-01-23T17:29:32Z</time>
      </trkpt>
      <trkpt lat="42.657914" lon="-5.549186">
        <ele>905.434</ele>
        <time>2022-01-23T17:29:36Z</time>
      </trkpt>
      <trkpt lat="42.658049" lon="-5.550051">
        <ele>904.755</ele>
        <time>2022-01-23T17:29:37Z</time>
      </trkpt>
      <trkpt lat="42.657901" lon="-5.550317">
        <ele>904.510</ele>
        <time>2022-01-23T17:29:39Z</time>
      </trkpt>
      <trkpt lat="42.657562" lon="-5.550739">
        <ele>903.308</ele>
        <time>2022-01-23T17:29:43Z</time>
      </trkpt>
      <trkpt lat="42.656894" lon="-5.551181">
        <ele>902.922</ele>
        <time>2022-01-23T17:29:49Z</time>
      </trkpt>
      <trkpt lat="42.656511" lon="-5.551278">
        <ele>903.696</ele>
        <time>2022-01-23T17:29:52Z</time>
      </trkpt>
      <trkpt lat="42.655622" lon="-5.550981">
        <ele>905.888</ele>
        <time>2022-01-23T17:29:59Z</time>
      </trkpt>
      <trkpt lat="42.655217" lon="-5.550986">
        <ele>905.546</ele>
        <time>2022-01-23T17:30:02Z</time>
      </trkpt>
      <trkpt lat="42.652068" lon="-5.552103">
        <ele>903.517</ele>
        <time>2022-01-23T17:30:24Z</time>
      </trkpt>
      <trkpt lat="42.648504" lon="-5.553515">
        <ele>900.010</ele>
        <time>2022-01-23T17:30:51Z</time>
      </trkpt>
      <trkpt lat="42.643224" lon="-5.556026">
        <ele>895.746</ele>
        <time>2022-01-23T17:31:33Z</time>
      </trkpt>
      <trkpt lat="42.642253" lon="-5.556067">
        <ele>894.899</ele>
        <time>2022-01-23T17:31:40Z</time>
      </trkpt>
      <trkpt lat="42.641166" lon="-5.556489">
        <ele>892.413</ele>
        <time>2022-01-23T17:31:49Z</time>
      </trkpt>
      <trkpt lat="42.639944" lon="-5.556716">
        <ele>891.143</ele>
        <time>2022-01-23T17:31:59Z</time>
      </trkpt>
      <trkpt lat="42.635784" lon="-5.558443">
        <ele>890.207</ele>
        <time>2022-01-23T17:32:38Z</time>
      </trkpt>
      <trkpt lat="42.633848" lon="-5.559604">
        <ele>885.608</ele>
        <time>2022-01-23T17:32:59Z</time>
      </trkpt>
      <trkpt lat="42.631351" lon="-5.560727">
        <ele>885.420</ele>
        <time>2022-01-23T17:33:24Z</time>
      </trkpt>
      <trkpt lat="42.630728" lon="-5.561195">
        <ele>884.744</ele>
        <time>2022-01-23T17:33:32Z</time>
      </trkpt>
      <trkpt lat="42.628559" lon="-5.561715">
        <ele>885.396</ele>
        <time>2022-01-23T17:33:53Z</time>
      </trkpt>
      <trkpt lat="42.627048" lon="-5.562689">
        <ele>882.564</ele>
        <time>2022-01-23T17:34:10Z</time>
      </trkpt>
      <trkpt lat="42.624083" lon="-5.563728">
        <ele>881.225</ele>
        <time>2022-01-23T17:34:42Z</time>
      </trkpt>
      <trkpt lat="42.621101" lon="-5.564492">
        <ele>880.428</ele>
        <time>2022-01-23T17:35:13Z</time>
      </trkpt>
      <trkpt lat="42.619835" lon="-5.565285">
        <ele>877.714</ele>
        <time>2022-01-23T17:35:52Z</time>
      </trkpt>
      <trkpt lat="42.616902" lon="-5.568113">
        <ele>875.427</ele>
        <time>2022-01-23T17:36:41Z</time>
      </trkpt>
      <trkpt lat="42.614731" lon="-5.568901">
        <ele>874.932</ele>
        <time>2022-01-23T17:37:14Z</time>
      </trkpt>
      <trkpt lat="42.609891" lon="-5.571891">
        <ele>877.092</ele>
        <time>2022-01-23T17:38:39Z</time>
      </trkpt>
      <trkpt lat="42.603903" lon="-5.574127">
        <ele>867.411</ele>
        <time>2022-01-23T17:40:28Z</time>
      </trkpt>
      <trkpt lat="42.603091" lon="-5.571848">
        <ele>868.108</ele>
        <time>2022-01-23T17:40:54Z</time>
      </trkpt>
      <trkpt lat="42.601617" lon="-5.572023">
        <ele>862.052</ele>
        <time>2022-01-23T17:42:01Z</time>
      </trkpt>
      <trkpt lat="42.600518" lon="-5.571493">
        <ele>861.896</ele>
        <time>2022-01-23T17:42:21Z</time>
      </trkpt>
      <trkpt lat="42.598492" lon="-5.571706">
        <ele>859.478</ele>
        <time>2022-01-23T17:43:02Z</time>
      </trkpt>
      <trkpt lat="42.598211" lon="-5.572157">
        <ele>857.816</ele>
        <time>2022-01-23T17:43:08Z</time>
      </trkpt>
      <trkpt lat="42.598003" lon="-5.572235">
        <ele>858.537</ele>
        <time>2022-01-23T17:43:12Z</time>
      </trkpt>
      <trkpt lat="42.597684" lon="-5.572198">
        <ele>858.130</ele>
        <time>2022-01-23T17:43:19Z</time>
      </trkpt>
      <trkpt lat="42.596699" lon="-5.571551">
        <ele>857.796</ele>
        <time>2022-01-23T17:43:37Z</time>
      </trkpt>
      <trkpt lat="42.594201" lon="-5.572270">
        <ele>857.289</ele>
        <time>2022-01-23T17:44:06Z</time>
      </trkpt>
      <trkpt lat="42.593309" lon="-5.572252">
        <ele>856.587</ele>
        <time>2022-01-23T17:44:18Z</time>
      </trkpt>
      <trkpt lat="42.593138" lon="-5.573950">
        <ele>855.842</ele>
        <time>2022-01-23T17:44:38Z</time>
      </trkpt>
      <trkpt lat="42.592439" lon="-5.573673">
        <ele>853.326</ele>
        <time>2022-01-23T17:49:22Z</time>
      </trkpt>
      <trkpt lat="42.591850" lon="-5.574128">
        <ele>853.008</ele>
        <time>2022-01-23T17:49:41Z</time>
      </trkpt>
      <trkpt lat="42.591527" lon="-5.571240">
        <ele>853.297</ele>
        <time>2022-01-23T17:50:26Z</time>
      </trkpt>
      <trkpt lat="42.592388" lon="-5.571042">
        <ele>852.641</ele>
        <time>2022-01-23T17:50:42Z</time>
      </trkpt>
      <trkpt lat="42.591735" lon="-5.567381">
        <ele>852.233</ele>
        <time>2022-01-23T17:51:17Z</time>
      </trkpt>
      <trkpt lat="42.591774" lon="-5.567246">
        <ele>852.241</ele>
        <time>2022-01-23T17:51:19Z</time>
      </trkpt>
      <trkpt lat="42.592533" lon="-5.567038">
        <ele>849.672</ele>
        <time>2022-01-23T17:51:34Z</time>
      </trkpt>
      <trkpt lat="42.591924" lon="-5.565371">
        <ele>849.745</ele>
        <time>2022-01-23T17:52:28Z</time>
      </trkpt>
      <trkpt lat="42.591065" lon="-5.563977">
        <ele>850.541</ele>
        <time>2022-01-23T17:52:41Z</time>
      </trkpt>
      <trkpt lat="42.590952" lon="-5.563182">
        <ele>849.254</ele>
        <time>2022-01-23T17:52:47Z</time>
      </trkpt>
      <trkpt lat="42.594180" lon="-5.559725">
        <ele>846.823</ele>
        <time>2022-01-23T17:54:39Z</time>
      </trkpt>
      <trkpt lat="42.595845" lon="-5.558763">
        <ele>850.083</ele>
        <time>2022-01-23T17:54:55Z</time>
      </trkpt>
      <trkpt lat="42.597538" lon="-5.557427">
        <ele>851.211</ele>
        <time>2022-01-23T17:55:11Z</time>
      </trkpt>
      <trkpt lat="42.598210" lon="-5.556604">
        <ele>850.908</ele>
        <time>2022-01-23T17:55:20Z</time>
      </trkpt>
      <trkpt lat="42.600057" lon="-5.556650">
        <ele>851.471</ele>
        <time>2022-01-23T17:55:48Z</time>
      </trkpt>
      <trkpt lat="42.600421" lon="-5.556550">
        <ele>849.595</ele>
        <time>2022-01-23T17:55:54Z</time>
      </trkpt>
      <trkpt lat="42.601500" lon="-5.556978">
        <ele>851.427</ele>
        <time>2022-01-23T17:56:07Z</time>
      </trkpt>
      <trkpt lat="42.602278" lon="-5.557671">
        <ele>852.625</ele>
        <time>2022-01-23T17:56:19Z</time>
      </trkpt>
      <trkpt lat="42.602376" lon="-5.557520">
        <ele>852.356</ele>
        <time>2022-01-23T17:56:24Z</time>
      </trkpt>
      <trkpt lat="42.602214" lon="-5.557213">
        <ele>852.279</ele>
        <time>2022-01-23T17:56:41Z</time>
      </trkpt>
      <trkpt lat="42.602346" lon="-5.557190">
        <ele>852.285</ele>
        <time>2022-01-23T17:58:49Z</time>
      </trkpt>
    </trkseg>
  </trk></gpx>